createdAt,value
2022-08-07T04:30:58.795Z,22.50
2022-08-07T04:32:02.945Z,22.50
2022-08-07T04:32:58.969Z,22.50
2022-08-07T04:33:57.794Z,28.12
2022-08-07T04:34:57.783Z,28.12
2022-08-07T04:35:57.907Z,28.12
2022-08-07T04:36:57.763Z,28.12
2022-08-07T04:38:03.777Z,28.12
2022-08-07T04:38:58.796Z,33.75
2022-08-07T04:39:57.758Z,33.75
2022-08-07T04:40:57.711Z,33.75
2022-08-07T04:41:57.693Z,33.75
2022-08-07T04:43:02.189Z,39.38
2022-08-07T04:44:12.138Z,39.38
2022-08-07T04:45:03.289Z,39.38
2022-08-07T04:47:08.615Z,45.00
2022-08-07T04:48:07.512Z,45.00
2022-08-07T04:49:18.237Z,50.62
2022-08-07T04:50:11.000Z,50.62
2022-08-07T04:51:09.061Z,50.62
2022-08-07T04:52:07.453Z,56.25
2022-08-07T04:53:07.440Z,56.25
2022-08-07T04:54:08.404Z,56.25
2022-08-07T04:55:14.853Z,56.25
2022-08-07T04:58:09.708Z,61.88
2022-08-07T04:58:12.002Z,61.88
2022-08-07T04:58:38.812Z,61.88
2022-08-07T04:59:17.570Z,67.50
2022-08-07T05:00:14.643Z,67.50
2022-08-07T05:01:13.639Z,67.50
2022-08-07T05:02:08.300Z,67.50
2022-08-07T05:03:31.150Z,73.12
2022-08-07T05:04:12.381Z,73.12
2022-08-07T05:05:12.006Z,73.12
2022-08-07T05:06:19.529Z,73.12
2022-08-07T05:07:09.635Z,78.75
2022-08-07T05:08:08.444Z,78.75
2022-08-07T05:09:07.251Z,78.75
2022-08-07T05:10:07.199Z,78.75
2022-08-07T05:11:07.189Z,78.75
2022-08-07T05:12:07.169Z,78.75
2022-08-07T05:14:44.567Z,78.75
2022-08-07T05:14:52.378Z,84.38
2022-08-07T05:15:08.136Z,90.00
2022-08-07T05:16:07.118Z,90.00
2022-08-07T05:17:11.960Z,90.00
2022-08-07T05:18:09.296Z,90.00
2022-08-07T05:19:07.097Z,90.00
2022-08-07T05:20:09.816Z,90.00
2022-08-07T05:21:07.060Z,90.00
2022-08-07T05:22:07.043Z,95.62
2022-08-07T05:23:07.029Z,95.62
2022-08-07T05:24:08.028Z,95.62
2022-08-07T05:25:08.737Z,95.62
2022-08-07T05:26:12.873Z,95.62
2022-08-07T05:27:08.005Z,95.62
2022-08-07T05:28:21.075Z,101.25
2022-08-07T05:29:07.986Z,101.25
2022-08-07T05:30:06.946Z,101.25
2022-08-07T05:31:06.928Z,101.25
2022-08-07T05:32:06.909Z,101.25
2022-08-07T05:33:06.905Z,101.25
2022-08-07T05:34:11.194Z,106.88
2022-08-07T05:35:07.867Z,106.88
2022-08-07T05:36:06.865Z,106.88
2022-08-07T05:37:07.836Z,101.25
2022-08-07T05:38:08.894Z,101.25
2022-08-07T05:40:05.427Z,101.25
2022-08-07T05:40:17.702Z,101.25
2022-08-07T05:41:14.289Z,106.88
2022-08-07T05:42:11.690Z,106.88
2022-08-07T05:43:06.776Z,106.88
2022-08-07T05:44:08.448Z,106.88
2022-08-07T05:45:14.739Z,106.88
2022-08-07T05:46:07.738Z,106.88
2022-08-07T05:47:18.331Z,106.88
2022-08-07T05:48:08.052Z,106.88
2022-08-07T05:49:12.144Z,106.88
2022-08-07T05:50:07.683Z,112.50
2022-08-07T05:51:06.666Z,112.50
2022-08-07T05:52:06.656Z,112.50
2022-08-07T05:53:06.635Z,112.50
2022-08-07T05:54:12.815Z,112.50
2022-08-07T05:55:10.845Z,112.50
2022-08-07T05:56:06.834Z,112.50
2022-08-07T05:57:06.607Z,112.50
2022-08-07T05:58:06.583Z,112.50
2022-08-07T05:59:06.573Z,112.50
2022-08-07T06:00:06.546Z,118.12
2022-08-07T06:01:10.437Z,118.12
2022-08-07T06:02:06.575Z,118.12
2022-08-07T06:03:06.525Z,118.12
2022-08-07T06:04:06.517Z,118.12
2022-08-07T06:05:06.475Z,118.12
2022-08-07T06:06:06.475Z,118.12
2022-08-07T06:07:06.468Z,118.12
2022-08-07T06:08:14.537Z,118.12
2022-08-07T06:09:07.446Z,118.12
2022-08-07T06:10:06.415Z,118.12
2022-08-07T06:11:07.404Z,118.12
2022-08-07T06:12:06.395Z,118.12
2022-08-07T06:13:06.382Z,118.12
2022-08-07T06:14:11.796Z,118.12
2022-08-07T06:15:07.345Z,118.12
2022-08-07T06:16:06.343Z,118.12
2022-08-07T06:17:07.038Z,123.75
2022-08-07T06:18:06.315Z,123.75
2022-08-07T06:19:06.457Z,123.75
2022-08-07T06:20:06.305Z,123.75
2022-08-07T06:22:14.980Z,123.75
2022-08-07T06:22:15.241Z,123.75
2022-08-07T06:23:46.606Z,123.75
2022-08-07T06:24:45.812Z,123.75
2022-08-07T06:25:10.265Z,123.75
2022-08-07T06:26:06.215Z,123.75
2022-08-07T06:27:06.195Z,129.38
2022-08-07T06:28:06.397Z,129.38
2022-08-07T06:29:06.436Z,129.38
2022-08-07T06:30:06.177Z,129.38
2022-08-07T06:31:07.145Z,129.38
2022-08-07T06:32:06.146Z,129.38
2022-08-07T06:33:15.592Z,129.38
2022-08-07T06:34:07.115Z,129.38
2022-08-07T06:35:10.635Z,129.38
2022-08-07T06:36:13.910Z,129.38
2022-08-07T06:37:07.075Z,129.38
2022-08-07T06:38:06.075Z,129.38
2022-08-07T06:40:13.177Z,129.38
2022-08-07T06:40:15.757Z,129.38
2022-08-07T06:41:07.204Z,129.38
2022-08-07T06:42:06.097Z,135.00
2022-08-07T06:43:07.138Z,135.00
2022-08-07T06:44:10.958Z,135.00
2022-08-07T06:45:05.983Z,135.00
2022-08-07T06:46:06.951Z,135.00
2022-08-07T06:47:10.047Z,135.00
2022-08-07T06:48:06.923Z,135.00
2022-08-07T06:49:05.903Z,135.00
2022-08-07T06:50:05.903Z,135.00
2022-08-07T06:51:08.149Z,135.00
2022-08-07T06:52:07.459Z,135.00
2022-08-07T06:53:05.853Z,135.00
2022-08-07T06:55:31.624Z,135.00
2022-08-07T06:55:32.698Z,135.00
2022-08-07T06:56:07.565Z,135.00
2022-08-07T06:57:06.823Z,135.00
2022-08-07T06:58:05.802Z,135.00
2022-08-07T07:00:12.088Z,135.00
2022-08-07T07:00:14.999Z,135.00
2022-08-07T07:01:06.791Z,135.00
2022-08-07T07:02:05.787Z,135.00
2022-08-07T07:03:08.817Z,140.62
2022-08-07T07:04:32.049Z,140.62
2022-08-07T07:05:06.714Z,140.62
2022-08-07T07:06:06.392Z,140.62
2022-08-07T07:07:10.811Z,140.62
2022-08-07T07:08:10.125Z,140.62
2022-08-07T07:09:06.642Z,140.62
2022-08-07T07:10:05.639Z,140.62
2022-08-07T07:11:13.839Z,140.62
2022-08-07T07:12:09.751Z,140.62
2022-08-07T07:13:06.602Z,140.62
2022-08-07T07:14:08.344Z,140.62
2022-08-07T07:15:09.066Z,140.62
2022-08-07T07:16:06.593Z,140.62
2022-08-07T07:17:05.542Z,140.62
2022-08-07T07:18:06.532Z,140.62
2022-08-07T07:19:55.148Z,140.62
2022-08-07T07:20:06.513Z,140.62
2022-08-07T07:21:05.514Z,140.62
2022-08-07T07:22:33.885Z,140.62
2022-08-07T07:24:09.775Z,140.62
2022-08-07T07:24:11.536Z,140.62
2022-08-07T07:26:30.502Z,140.62
2022-08-07T07:26:34.780Z,140.62
2022-08-07T07:27:06.412Z,140.62
2022-08-07T07:28:29.902Z,140.62
2022-08-07T07:29:56.197Z,140.62
2022-08-07T07:30:09.948Z,140.62
2022-08-07T07:31:07.160Z,140.62
2022-08-07T07:32:05.381Z,140.62
2022-08-07T07:33:05.360Z,140.62
2022-08-07T07:34:05.343Z,140.62
2022-08-07T07:35:05.357Z,140.62
2022-08-07T07:36:12.877Z,146.25
2022-08-07T07:37:21.572Z,146.25
2022-08-07T07:38:06.564Z,146.25
2022-08-07T07:39:05.358Z,146.25
2022-08-07T07:40:10.438Z,140.62
2022-08-07T07:41:08.629Z,140.62
2022-08-07T07:42:13.080Z,140.62
2022-08-07T07:43:15.023Z,140.62
2022-08-07T07:44:16.862Z,140.62
2022-08-07T07:45:06.183Z,140.62
2022-08-07T07:46:36.619Z,140.62
2022-08-07T07:47:14.107Z,140.62
2022-08-07T07:48:06.154Z,140.62
2022-08-07T07:49:08.939Z,140.62
2022-08-07T07:50:33.577Z,140.62
2022-08-07T07:51:07.461Z,140.62
2022-08-07T07:52:05.776Z,140.62
2022-08-07T07:53:05.085Z,140.62
2022-08-07T07:54:06.081Z,140.62
2022-08-07T07:55:05.060Z,140.62
2022-08-07T07:56:05.042Z,140.62
2022-08-07T07:57:05.050Z,140.62
2022-08-07T07:58:05.011Z,140.62
2022-08-07T07:59:06.013Z,140.62
2022-08-07T08:00:04.997Z,140.62
2022-08-07T08:02:02.085Z,140.62
2022-08-07T08:02:10.698Z,140.62
2022-08-07T08:03:07.089Z,140.62
2022-08-07T08:04:06.281Z,140.62
2022-08-07T08:05:14.287Z,140.62
2022-08-07T08:06:05.932Z,140.62
2022-08-07T08:07:06.797Z,140.62
2022-08-07T08:08:04.902Z,140.62
2022-08-07T08:09:04.882Z,140.62
2022-08-07T08:10:05.804Z,140.62
2022-08-07T08:11:04.852Z,140.62
2022-08-07T08:12:05.184Z,140.62
2022-08-07T08:13:04.831Z,140.62
2022-08-07T08:14:05.804Z,140.62
2022-08-07T08:15:07.033Z,140.62
2022-08-07T08:16:04.843Z,140.62
2022-08-07T08:17:56.563Z,140.62
2022-08-07T08:18:17.403Z,140.62
2022-08-07T08:19:09.915Z,140.62
2022-08-07T08:20:22.208Z,140.62
2022-08-07T08:21:07.584Z,140.62
2022-08-07T08:22:04.712Z,140.62
2022-08-07T08:23:04.692Z,140.62
2022-08-07T08:24:04.682Z,140.62
2022-08-07T08:25:25.009Z,140.62
2022-08-07T08:26:07.152Z,140.62
2022-08-07T08:27:05.914Z,146.25
2022-08-07T08:28:04.632Z,146.25
2022-08-07T08:29:04.622Z,146.25
2022-08-07T08:30:04.623Z,146.25
2022-08-07T08:31:05.142Z,146.25
2022-08-07T08:32:18.115Z,146.25
2022-08-07T08:33:05.669Z,146.25
2022-08-07T08:34:05.552Z,146.25
2022-08-07T08:35:04.542Z,146.25
2022-08-07T08:36:04.523Z,146.25
2022-08-07T08:37:04.532Z,146.25
2022-08-07T08:38:05.722Z,146.25
2022-08-07T08:39:04.507Z,146.25
2022-08-07T08:40:04.491Z,146.25
2022-08-07T08:41:05.504Z,146.25
2022-08-07T08:42:04.454Z,146.25
2022-08-07T08:43:04.443Z,146.25
2022-08-07T08:44:04.430Z,151.88
2022-08-07T08:45:04.581Z,151.88
2022-08-07T08:46:04.413Z,151.88
2022-08-07T08:47:04.433Z,151.88
2022-08-07T08:48:04.402Z,151.88
2022-08-07T08:49:04.991Z,151.88
2022-08-07T08:50:05.545Z,151.88
2022-08-07T08:51:14.571Z,151.88
2022-08-07T08:52:13.744Z,151.88
2022-08-07T08:53:05.326Z,151.88
2022-08-07T08:54:04.293Z,151.88
2022-08-07T08:55:04.741Z,151.88
2022-08-07T08:56:04.263Z,157.50
2022-08-07T08:57:04.284Z,157.50
2022-08-07T08:58:04.241Z,157.50
2022-08-07T08:59:06.464Z,157.50
2022-08-07T09:00:05.213Z,157.50
2022-08-07T09:01:15.156Z,157.50
2022-08-07T09:02:05.242Z,157.50
2022-08-07T09:03:07.521Z,157.50
2022-08-07T09:04:04.194Z,157.50
2022-08-07T09:05:04.156Z,157.50
2022-08-07T09:06:04.133Z,157.50
2022-08-07T09:07:04.142Z,157.50
2022-08-07T09:08:04.116Z,163.12
2022-08-07T09:09:13.378Z,163.12
2022-08-07T09:10:05.074Z,163.12
2022-08-07T09:11:04.081Z,163.12
2022-08-07T09:12:20.135Z,163.12
2022-08-07T09:13:05.054Z,163.12
2022-08-07T09:14:04.046Z,163.12
2022-08-07T09:16:20.620Z,168.75
2022-08-07T09:16:25.526Z,163.12
2022-08-07T09:17:05.339Z,168.75
2022-08-07T09:18:08.690Z,168.75
2022-08-07T09:19:07.177Z,168.75
2022-08-07T09:20:30.725Z,168.75
2022-08-07T09:21:05.018Z,174.38
2022-08-07T09:22:37.154Z,174.38
2022-08-07T09:24:30.859Z,180.00
2022-08-07T09:24:34.137Z,174.38
2022-08-07T09:25:12.018Z,180.00
2022-08-07T09:26:04.875Z,191.25
2022-08-07T09:27:09.025Z,191.25
2022-08-07T09:28:04.874Z,208.12
2022-08-07T09:30:01.981Z,213.75
2022-08-07T09:30:08.780Z,219.38
2022-08-07T09:31:03.815Z,225.00
2022-08-07T09:32:03.794Z,225.00
2022-08-07T09:33:05.353Z,225.00
2022-08-07T09:34:03.774Z,230.62
2022-08-07T09:35:04.584Z,230.62
2022-08-07T09:36:07.756Z,230.62
2022-08-07T09:37:03.744Z,236.25
2022-08-07T09:38:03.748Z,236.25
2022-08-07T09:39:11.426Z,241.88
2022-08-07T09:40:04.742Z,241.88
2022-08-07T09:41:03.686Z,241.88
2022-08-07T09:42:05.905Z,247.50
2022-08-07T09:43:03.675Z,247.50
2022-08-07T09:44:19.164Z,253.12
2022-08-07T09:47:24.705Z,258.75
2022-08-07T09:47:26.046Z,258.75
2022-08-07T09:47:42.523Z,264.38
2022-08-07T09:48:07.514Z,270.00
2022-08-07T09:50:02.567Z,270.00
2022-08-07T09:50:19.636Z,270.00
2022-08-07T09:51:14.539Z,275.62
2022-08-07T09:52:15.527Z,275.62
2022-08-07T09:53:04.551Z,275.62
2022-08-07T09:54:03.530Z,281.25
2022-08-07T09:55:03.516Z,286.88
2022-08-07T09:56:05.121Z,286.88
2022-08-07T09:57:03.692Z,292.50
2022-08-07T09:58:03.508Z,292.50
2022-08-07T09:59:07.536Z,292.50
2022-08-07T10:00:04.447Z,292.50
2022-08-07T10:01:03.525Z,298.12
2022-08-07T10:02:04.417Z,298.12
2022-08-07T10:03:08.350Z,292.50
2022-08-07T10:04:14.944Z,292.50
2022-08-07T10:05:12.511Z,292.50
2022-08-07T10:06:11.849Z,292.50
2022-08-07T10:07:04.349Z,298.12
2022-08-07T10:08:04.358Z,303.75
2022-08-07T10:09:03.328Z,303.75
2022-08-07T10:10:03.454Z,309.38
2022-08-07T10:12:00.318Z,320.62
2022-08-07T10:12:15.094Z,337.50
2022-08-07T10:13:04.289Z,382.50
2022-08-07T10:14:04.280Z,427.50
2022-08-07T10:15:03.271Z,466.88
2022-08-07T10:16:03.268Z,511.88
2022-08-07T10:17:03.230Z,573.75
2022-08-07T10:18:04.232Z,624.38
2022-08-07T10:19:03.200Z,703.12
2022-08-07T10:20:04.190Z,781.88
2022-08-07T10:21:03.186Z,753.75
2022-08-07T10:22:14.665Z,652.50
2022-08-07T10:23:04.161Z,590.62
2022-08-07T10:24:05.222Z,635.62
2022-08-07T10:25:03.138Z,759.38
2022-08-07T10:26:03.128Z,798.75
2022-08-07T10:27:03.102Z,826.88
2022-08-07T10:28:04.103Z,883.12
2022-08-07T10:29:03.089Z,883.12
2022-08-07T10:30:03.071Z,871.88
2022-08-07T10:31:03.064Z,933.75
2022-08-07T10:32:03.061Z,967.50
2022-08-07T10:33:03.062Z,990.00
2022-08-07T10:34:06.829Z,1023.75
2022-08-07T10:35:04.024Z,1057.50
2022-08-07T10:36:11.431Z,1091.25
2022-08-07T10:37:04.775Z,1091.25
2022-08-07T10:38:21.031Z,1096.88
2022-08-07T10:39:04.466Z,1113.75
2022-08-07T10:40:06.184Z,1136.25
2022-08-07T10:41:04.119Z,1130.62
2022-08-07T10:42:09.696Z,1125.00
2022-08-07T10:43:03.924Z,1096.88
2022-08-07T10:44:07.780Z,1147.50
2022-08-07T10:45:03.895Z,1130.62
2022-08-07T10:47:02.607Z,1147.50
2022-08-07T10:48:03.805Z,1164.38
2022-08-07T10:49:02.581Z,1209.38
2022-08-07T10:50:02.558Z,1198.12
2022-08-07T10:51:03.901Z,1170.00
2022-08-07T10:52:13.256Z,1203.75
2022-08-07T10:53:08.153Z,1220.62
2022-08-07T10:54:03.528Z,1215.00
2022-08-07T10:55:21.231Z,1215.00
2022-08-07T10:56:03.477Z,1254.38
2022-08-07T10:57:02.478Z,1276.88
2022-08-07T10:58:02.470Z,1265.62
2022-08-07T10:59:02.450Z,1265.62
2022-08-07T11:00:02.438Z,1271.25
2022-08-07T11:01:02.461Z,1316.25
2022-08-07T11:02:11.703Z,1321.88
2022-08-07T11:03:03.539Z,1299.38
2022-08-07T11:04:23.080Z,1293.75
2022-08-07T11:05:08.524Z,1288.12
2022-08-07T11:06:04.778Z,1327.50
2022-08-07T11:07:02.360Z,1333.12
2022-08-07T11:08:03.419Z,1327.50
2022-08-07T11:09:02.343Z,1288.12
2022-08-07T11:10:07.149Z,1288.12
2022-08-07T11:11:03.380Z,1305.00
2022-08-07T11:12:02.290Z,1355.62
2022-08-07T11:13:02.563Z,1395.00
2022-08-07T11:14:43.409Z,1389.38
2022-08-07T11:15:03.250Z,1372.50
2022-08-07T11:16:03.241Z,1366.88
2022-08-07T11:17:07.278Z,1400.62
2022-08-07T11:18:03.659Z,1389.38
2022-08-07T11:19:02.211Z,1395.00
2022-08-07T11:20:03.249Z,1372.50
2022-08-07T11:21:02.183Z,1406.25
2022-08-07T11:22:02.175Z,1417.50
2022-08-07T11:23:02.162Z,1378.12
2022-08-07T11:24:02.155Z,1400.62
2022-08-07T11:25:06.522Z,1372.50
2022-08-07T11:26:06.039Z,1383.75
2022-08-07T11:27:02.103Z,1400.62
2022-08-07T11:28:03.992Z,1383.75
2022-08-07T11:29:02.093Z,1372.50
2022-08-07T11:30:18.490Z,1395.00
2022-08-07T11:31:03.180Z,1389.38
2022-08-07T11:32:03.034Z,1395.00
2022-08-07T11:33:02.034Z,2874.38
2022-08-07T11:34:03.066Z,2874.38
2022-08-07T11:35:02.002Z,1423.12
2022-08-07T11:36:04.638Z,1389.38
2022-08-07T11:37:01.974Z,2874.38
2022-08-07T11:38:12.437Z,2874.38
2022-08-07T11:39:03.017Z,2874.38
2022-08-07T11:40:03.697Z,2874.38
2022-08-07T11:41:02.108Z,1434.38
2022-08-07T11:42:03.321Z,1434.38
2022-08-07T11:43:01.942Z,2874.38
2022-08-07T11:44:11.770Z,2874.38
2022-08-07T11:45:03.533Z,2874.38
2022-08-07T11:46:01.866Z,2874.38
2022-08-07T11:47:01.861Z,2874.38
2022-08-07T11:48:03.425Z,2874.38
2022-08-07T11:49:51.228Z,2874.38
2022-08-07T11:50:31.052Z,2874.38
2022-08-07T11:51:02.811Z,1383.75
2022-08-07T11:52:01.796Z,1080.00
2022-08-07T11:53:01.797Z,753.75
2022-08-07T11:54:03.137Z,506.25
2022-08-07T11:55:02.776Z,438.75
2022-08-07T11:56:25.082Z,416.25
2022-08-07T11:57:02.727Z,405.00
2022-08-07T11:58:01.870Z,388.12
2022-08-07T11:59:01.728Z,376.88
2022-08-07T12:00:10.821Z,371.25
2022-08-07T12:01:05.289Z,371.25
2022-08-07T12:02:01.828Z,371.25
2022-08-07T12:03:01.706Z,382.50
2022-08-07T12:04:01.690Z,405.00
2022-08-07T12:05:01.640Z,562.50
2022-08-07T12:06:01.619Z,810.00
2022-08-07T12:07:09.122Z,1113.75
2022-08-07T12:08:03.897Z,1372.50
2022-08-07T12:09:01.630Z,2874.38
2022-08-07T12:10:02.258Z,2874.38
2022-08-07T12:11:20.778Z,2874.38
2022-08-07T12:12:10.795Z,2874.38
2022-08-07T12:13:02.543Z,2874.38
2022-08-07T12:14:02.690Z,1406.25
2022-08-07T12:15:01.967Z,1192.50
2022-08-07T12:16:05.825Z,883.12
2022-08-07T12:17:02.492Z,596.25
2022-08-07T12:18:08.001Z,433.12
2022-08-07T12:19:02.472Z,393.75
2022-08-07T12:20:03.914Z,382.50
2022-08-07T12:21:02.442Z,376.88
2022-08-07T12:22:39.247Z,433.12
2022-08-07T12:23:02.421Z,652.50
2022-08-07T12:24:06.705Z,1001.25
2022-08-07T12:25:07.719Z,1316.25
2022-08-07T12:26:22.651Z,2874.38
2022-08-07T12:27:02.391Z,2874.38
2022-08-07T12:28:04.082Z,2874.38
2022-08-07T12:29:02.373Z,2874.38
2022-08-07T12:30:01.344Z,2874.38
2022-08-07T12:31:01.373Z,2874.38
2022-08-07T12:32:02.309Z,2874.38
2022-08-07T12:33:01.302Z,1350.00
2022-08-07T12:34:04.230Z,922.50
2022-08-07T12:35:02.286Z,933.75
2022-08-07T12:36:02.380Z,815.62
2022-08-07T12:37:01.294Z,939.38
2022-08-07T12:38:09.413Z,275.62
2022-08-07T12:39:02.355Z,1091.25
2022-08-07T12:40:01.280Z,2874.38
2022-08-07T12:41:01.808Z,2874.38
2022-08-07T12:42:02.555Z,2874.38
2022-08-07T12:43:01.189Z,2874.38
2022-08-07T12:44:05.003Z,2874.38
2022-08-07T12:45:05.583Z,2874.38
2022-08-07T12:46:01.287Z,2874.38
2022-08-07T12:47:01.136Z,2874.38
2022-08-07T12:48:01.135Z,2874.38
2022-08-07T12:49:10.219Z,1209.38
2022-08-07T12:50:04.386Z,1018.12
2022-08-07T12:51:01.083Z,2874.38
2022-08-07T12:52:11.974Z,2874.38
2022-08-07T12:53:05.219Z,2874.38
2022-08-07T12:54:03.241Z,720.00
2022-08-07T12:55:05.356Z,376.88
2022-08-07T12:56:03.829Z,292.50
2022-08-07T12:57:04.562Z,309.38
2022-08-07T12:58:02.624Z,399.38
2022-08-07T12:59:00.987Z,1226.25
2022-08-07T13:00:01.009Z,2874.38
2022-08-07T13:01:01.026Z,1136.25
2022-08-07T13:02:00.940Z,871.88
2022-08-07T13:03:00.948Z,618.75
2022-08-07T13:04:05.156Z,483.75
2022-08-07T13:05:01.594Z,455.62
2022-08-07T13:06:03.596Z,444.38
2022-08-07T13:07:02.081Z,438.75
2022-08-07T13:08:13.771Z,495.00
2022-08-07T13:09:01.889Z,708.75
2022-08-07T13:10:18.882Z,1012.50
2022-08-07T13:11:01.840Z,1321.88
2022-08-07T13:12:02.953Z,2874.38
2022-08-07T13:13:00.812Z,2874.38
2022-08-07T13:14:00.800Z,2874.38
2022-08-07T13:15:00.791Z,2874.38
2022-08-07T13:16:00.794Z,2874.38
2022-08-07T13:17:00.797Z,2874.38
2022-08-07T13:18:00.774Z,2874.38
2022-08-07T13:19:00.742Z,2874.38
2022-08-07T13:20:00.733Z,2874.38
2022-08-07T13:21:00.901Z,2874.38
2022-08-07T13:22:05.153Z,2874.38
2022-08-07T13:23:09.681Z,2874.38
2022-08-07T13:24:04.599Z,2874.38
2022-08-07T13:25:00.674Z,2874.38
2022-08-07T13:26:01.516Z,2874.38
2022-08-07T13:27:00.651Z,2874.38
2022-08-07T13:28:11.205Z,2874.38
2022-08-07T13:29:01.632Z,2874.38
2022-08-07T13:30:03.574Z,2874.38
2022-08-07T13:31:01.541Z,2874.38
2022-08-07T13:32:23.548Z,2874.38
2022-08-07T13:33:01.648Z,2874.38
2022-08-07T13:34:32.622Z,2874.38
2022-08-07T13:35:08.394Z,2874.38
2022-08-07T13:36:05.528Z,2874.38
2022-08-07T13:37:00.532Z,2874.38
2022-08-07T13:38:01.078Z,2874.38
2022-08-07T13:39:00.562Z,2874.38
2022-08-07T13:40:33.966Z,2874.38
2022-08-07T13:41:01.624Z,2874.38
2022-08-07T13:42:00.476Z,2874.38
2022-08-07T13:43:00.470Z,2874.38
2022-08-07T13:44:00.457Z,2874.38
2022-08-07T13:45:20.916Z,2874.38
2022-08-07T13:46:12.346Z,2874.38
2022-08-07T13:47:01.425Z,2874.38
2022-08-07T13:48:06.515Z,2874.38
2022-08-07T13:49:01.396Z,2874.38
2022-08-07T13:50:32.600Z,2874.38
2022-08-07T13:51:20.390Z,2874.38
2022-08-07T13:52:05.440Z,2874.38
2022-08-07T13:53:01.350Z,2874.38
2022-08-07T13:54:03.071Z,2874.38
2022-08-07T13:55:00.700Z,2874.38
2022-08-07T13:56:00.328Z,2874.38
2022-08-07T13:57:00.307Z,2874.38
2022-08-07T13:58:02.377Z,2874.38
2022-08-07T13:59:00.297Z,2874.38
2022-08-07T14:00:00.349Z,2874.38
2022-08-07T14:01:00.269Z,2874.38
2022-08-07T14:02:04.361Z,2874.38
2022-08-07T14:03:00.231Z,2874.38
2022-08-07T14:04:08.152Z,2874.38
2022-08-07T14:05:01.258Z,2874.38
2022-08-07T14:06:00.209Z,2874.38
2022-08-07T14:07:00.189Z,2874.38
2022-08-07T14:08:01.478Z,2874.38
2022-08-07T14:09:00.159Z,2874.38
2022-08-07T14:10:12.294Z,2874.38
2022-08-07T14:11:14.490Z,2874.38
2022-08-07T14:12:04.914Z,2874.38
2022-08-07T14:13:01.109Z,2874.38
2022-08-07T14:14:00.110Z,2874.38
2022-08-07T14:15:00.098Z,2874.38
2022-08-07T14:16:00.083Z,2874.38
2022-08-07T14:17:00.099Z,2874.38
2022-08-07T14:18:23.812Z,2874.38
2022-08-07T14:19:01.042Z,2874.38
2022-08-07T14:20:40.964Z,2874.38
2022-08-07T14:21:11.717Z,2874.38
2022-08-07T14:22:11.536Z,2874.38
2022-08-07T14:23:01.002Z,2874.38
2022-08-07T14:24:02.231Z,2874.38
2022-08-07T14:24:59.974Z,2874.38
2022-08-07T14:25:59.963Z,2874.38
2022-08-07T14:27:00.178Z,2874.38
2022-08-07T14:29:08.606Z,2874.38
2022-08-07T14:30:08.175Z,1040.62
2022-08-07T14:31:00.932Z,978.75
2022-08-07T14:31:59.902Z,1344.38
2022-08-07T14:32:59.883Z,2874.38
2022-08-07T14:33:59.871Z,2874.38
2022-08-07T14:34:59.854Z,2874.38
2022-08-07T14:35:59.846Z,2874.38
2022-08-07T14:37:01.708Z,2874.38
2022-08-07T14:38:05.542Z,2874.38
2022-08-07T14:39:00.870Z,2874.38
2022-08-07T14:40:17.515Z,2874.38
2022-08-07T14:41:02.245Z,2874.38
2022-08-07T14:42:20.438Z,2874.38
2022-08-07T14:43:57.949Z,2874.38
2022-08-07T14:45:21.835Z,2874.38
2022-08-07T14:46:00.735Z,2874.38
2022-08-07T14:48:00.704Z,2874.38
2022-08-07T14:48:59.687Z,2874.38
2022-08-07T14:50:00.695Z,2874.38
2022-08-07T14:51:00.138Z,2874.38
2022-08-07T14:52:03.086Z,2874.38
2022-08-07T14:53:07.914Z,2874.38
2022-08-07T14:54:09.492Z,2874.38
2022-08-07T14:55:00.617Z,2874.38
2022-08-07T14:56:02.076Z,2874.38
2022-08-07T14:56:59.608Z,2874.38
2022-08-07T14:57:59.606Z,2874.38
2022-08-07T14:58:59.568Z,2874.38
2022-08-07T15:00:04.498Z,2874.38
2022-08-07T15:01:22.615Z,2874.38
2022-08-07T15:02:00.547Z,2874.38
2022-08-07T15:02:59.526Z,2874.38
2022-08-07T15:04:05.361Z,2874.38
2022-08-07T15:05:01.818Z,2874.38
2022-08-07T15:06:03.746Z,2874.38
2022-08-07T15:07:00.919Z,2874.38
2022-08-07T15:07:59.798Z,2874.38
2022-08-07T15:08:59.448Z,2874.38
2022-08-07T15:10:01.995Z,2874.38
2022-08-07T15:11:01.761Z,2874.38
2022-08-07T15:12:01.284Z,2874.38
2022-08-07T15:13:00.389Z,2874.38
2022-08-07T15:13:59.389Z,2874.38
2022-08-07T15:15:00.373Z,2874.38
2022-08-07T15:16:00.355Z,2874.38
2022-08-07T15:17:00.681Z,2874.38
2022-08-07T15:17:59.364Z,2874.38
2022-08-07T15:19:00.637Z,2874.38
2022-08-07T15:20:33.952Z,2874.38
2022-08-07T15:22:04.600Z,2874.38
2022-08-07T15:23:00.303Z,2874.38
2022-08-07T15:25:13.105Z,2874.38
2022-08-07T15:25:15.781Z,2874.38
2022-08-07T15:26:00.240Z,2874.38
2022-08-07T15:26:59.282Z,2874.38
2022-08-07T15:28:32.962Z,2874.38
2022-08-07T15:30:06.690Z,2874.38
2022-08-07T15:31:05.874Z,2874.38
2022-08-07T15:33:03.982Z,2874.38
2022-08-07T15:34:00.141Z,2874.38
2022-08-07T15:34:59.142Z,2874.38
2022-08-07T15:36:01.275Z,2874.38
2022-08-07T15:39:00.281Z,2874.38
2022-08-07T15:39:59.195Z,2874.38
2022-08-07T15:42:46.252Z,2874.38
2022-08-07T15:43:00.057Z,2874.38
2022-08-07T15:43:59.044Z,2874.38
2022-08-07T15:44:59.025Z,2874.38
2022-08-07T15:49:11.935Z,2874.38
2022-08-07T15:50:05.347Z,2874.38
2022-08-07T15:53:02.333Z,2874.38
2022-08-07T15:53:58.941Z,2874.38
2022-08-07T15:55:02.663Z,2874.38
2022-08-07T15:56:02.842Z,2874.38
2022-08-07T15:56:59.877Z,2874.38
2022-08-07T15:58:00.401Z,1434.38
2022-08-07T15:58:58.867Z,1423.12
2022-08-07T15:59:59.345Z,1411.88
2022-08-07T16:00:59.852Z,2874.38
2022-08-07T16:02:01.858Z,2874.38
2022-08-07T16:02:58.816Z,1428.75
2022-08-07T16:03:58.797Z,2874.38
2022-08-07T16:04:58.777Z,2874.38
2022-08-07T16:05:58.767Z,2874.38
2022-08-07T16:06:58.758Z,2874.38
2022-08-07T16:08:32.161Z,2874.38
2022-08-07T16:08:59.749Z,2874.38
2022-08-07T16:09:58.720Z,2874.38
2022-08-07T16:10:58.709Z,1417.50
2022-08-07T16:11:58.690Z,1282.50
2022-08-07T16:13:04.860Z,1248.75
2022-08-07T16:14:03.211Z,1271.25
2022-08-07T16:14:59.334Z,1327.50
2022-08-07T16:15:59.704Z,1305.00
2022-08-07T16:16:59.642Z,1293.75
2022-08-07T16:18:01.497Z,1321.88
2022-08-07T16:18:58.621Z,1237.50
2022-08-07T16:20:00.017Z,1192.50
2022-08-07T16:22:02.025Z,1181.25
2022-08-07T16:22:05.199Z,1113.75
2022-08-07T16:23:05.307Z,1096.88
2022-08-07T16:23:59.553Z,1080.00
2022-08-07T16:24:58.551Z,1119.38
2022-08-07T16:25:58.531Z,1029.38
2022-08-07T16:26:58.956Z,905.62
2022-08-07T16:27:58.526Z,922.50
2022-08-07T16:30:05.664Z,905.62
2022-08-07T16:30:10.237Z,343.12
2022-08-07T16:30:59.472Z,219.38
2022-08-07T16:31:58.627Z,213.75
2022-08-07T16:32:58.460Z,213.75
2022-08-07T16:34:02.679Z,219.38
2022-08-07T16:34:59.535Z,461.25
2022-08-07T16:35:59.899Z,720.00
2022-08-07T16:37:02.574Z,781.88
2022-08-07T16:38:04.682Z,568.12
2022-08-07T16:39:00.947Z,320.62
2022-08-07T16:39:58.382Z,641.25
2022-08-07T16:41:01.491Z,922.50
2022-08-07T16:41:58.333Z,978.75
2022-08-07T16:42:58.336Z,967.50
2022-08-07T16:44:03.728Z,855.00
2022-08-07T16:46:20.959Z,753.75
2022-08-07T16:46:21.341Z,556.88
2022-08-07T16:47:15.736Z,495.00
2022-08-07T16:47:59.311Z,528.75
2022-08-07T16:50:19.298Z,433.12
2022-08-07T16:50:29.403Z,461.25
2022-08-07T16:51:21.877Z,388.12
2022-08-07T16:52:50.726Z,371.25
2022-08-07T16:53:14.741Z,500.62
2022-08-07T16:54:06.791Z,528.75
2022-08-07T16:54:59.254Z,511.88
2022-08-07T16:55:59.163Z,500.62
2022-08-07T16:56:58.146Z,444.38
2022-08-07T16:58:01.618Z,461.25
2022-08-07T16:59:14.234Z,433.12
2022-08-07T16:59:59.104Z,438.75
2022-08-07T17:00:58.107Z,511.88
2022-08-07T17:01:58.104Z,489.38
2022-08-07T17:02:58.137Z,450.00
2022-08-07T17:04:00.366Z,455.62
2022-08-07T17:04:58.825Z,478.12
2022-08-07T17:06:28.285Z,461.25
2022-08-07T17:07:03.140Z,450.00